createdAt,value
2023-05-23T00:01:55.233Z,95.02
2023-05-23T00:04:22.108Z,94.97
2023-05-23T00:06:50.553Z,94.76
2023-05-23T00:09:17.321Z,94.52
2023-05-23T00:11:45.228Z,93.82
2023-05-23T00:14:13.651Z,93.25
2023-05-23T00:16:41.500Z,94.06
2023-05-23T00:19:09.506Z,94.14
2023-05-23T00:21:36.235Z,95.31
2023-05-23T00:24:02.779Z,94.95
2023-05-23T00:26:32.154Z,94.73
2023-05-23T00:28:58.853Z,94.46
2023-05-23T00:31:25.467Z,93.79
2023-05-23T00:33:52.033Z,93.30
2023-05-23T00:36:19.017Z,93.78
2023-05-23T00:38:49.367Z,92.85
2023-05-23T00:41:16.276Z,91.20
2023-05-23T00:43:42.989Z,91.96
2023-05-23T00:46:10.606Z,93.57
2023-05-23T00:48:38.613Z,93.39
2023-05-23T00:51:05.519Z,93.90
2023-05-23T00:53:32.043Z,94.21
2023-05-23T00:55:58.577Z,93.77
2023-05-23T00:58:25.165Z,93.59
2023-05-23T01:00:54.394Z,93.49
2023-05-23T01:03:21.140Z,93.07
2023-05-23T01:05:47.853Z,93.06
2023-05-23T01:08:15.815Z,93.79
2023-05-23T01:10:42.552Z,93.81
2023-05-23T01:13:22.227Z,93.93
2023-05-23T01:16:13.717Z,95.05
2023-05-23T01:18:47.658Z,94.89
2023-05-23T01:21:17.944Z,95.29
2023-05-23T01:24:06.122Z,94.98
2023-05-23T01:27:05.347Z,94.71
2023-05-23T01:29:38.074Z,95.40
2023-05-23T01:32:06.633Z,94.28
2023-05-23T01:34:34.466Z,93.73
2023-05-23T01:37:01.003Z,93.78
2023-05-23T01:39:27.551Z,93.20
2023-05-23T01:41:54.051Z,93.80
2023-05-23T01:44:21.406Z,93.63
2023-05-23T01:46:48.058Z,93.50
2023-05-23T01:49:14.675Z,93.23
2023-05-23T01:51:41.271Z,93.64
2023-05-23T01:54:07.794Z,94.03
2023-05-23T01:56:34.473Z,92.84
2023-05-23T01:59:02.018Z,93.03
2023-05-23T02:01:28.583Z,91.71
2023-05-23T02:03:55.572Z,92.80
2023-05-23T02:06:22.105Z,92.21
2023-05-23T02:08:48.592Z,92.69
2023-05-23T02:11:15.985Z,92.60
2023-05-23T02:13:42.532Z,92.91
2023-05-23T02:16:09.106Z,93.49
2023-05-23T02:18:38.250Z,93.13
2023-05-23T02:21:06.029Z,92.48
2023-05-23T02:23:32.701Z,91.17
2023-05-23T02:25:59.251Z,89.80
2023-05-23T02:28:25.994Z,90.29
2023-05-23T02:30:52.587Z,91.00
2023-05-23T02:33:19.741Z,91.66
2023-05-23T02:35:46.420Z,92.62
2023-05-23T02:38:13.035Z,92.70
2023-05-23T02:40:39.534Z,94.92
2023-05-23T02:43:06.063Z,95.32
2023-05-23T02:45:32.785Z,95.14
2023-05-23T02:47:59.337Z,94.29
2023-05-23T02:50:26.167Z,93.21
2023-05-23T02:52:52.706Z,92.66
2023-05-23T02:55:19.300Z,93.36
2023-05-23T02:57:46.163Z,92.38
2023-05-23T03:00:13.357Z,93.56
2023-05-23T03:02:39.956Z,94.10
2023-05-23T03:05:07.116Z,93.38
2023-05-23T03:07:33.917Z,93.59
2023-05-23T03:10:01.214Z,93.69
2023-05-23T03:12:30.591Z,92.36
2023-05-23T03:14:57.089Z,91.64
2023-05-23T03:17:25.514Z,92.13
2023-05-23T03:19:52.058Z,93.07
2023-05-23T03:22:18.571Z,93.97
2023-05-23T03:24:45.075Z,94.08
2023-05-23T03:27:11.660Z,93.77
2023-05-23T03:29:38.268Z,93.65
2023-05-23T03:32:05.109Z,93.26
2023-05-23T03:34:33.103Z,96.09
2023-05-23T03:37:00.020Z,95.64
2023-05-23T03:39:26.585Z,96.13
2023-05-23T03:41:53.317Z,95.09
2023-05-23T03:44:19.987Z,96.24
2023-05-23T03:46:46.484Z,96.70
2023-05-23T03:49:13.265Z,95.98
2023-05-23T03:51:39.766Z,96.04
2023-05-23T03:54:06.480Z,96.06
2023-05-23T03:56:33.241Z,96.46
2023-05-23T03:59:00.032Z,96.54
2023-05-23T04:01:27.745Z,97.04
2023-05-23T04:03:54.714Z,97.64
2023-05-23T04:06:22.759Z,96.61
2023-05-23T04:08:49.268Z,94.72
2023-05-23T04:11:15.873Z,94.53
2023-05-23T04:13:42.752Z,95.42
2023-05-23T04:16:09.356Z,94.93
2023-05-23T04:18:39.132Z,94.50
2023-05-23T04:21:05.804Z,94.17
2023-05-23T04:23:32.387Z,93.99
2023-05-23T04:25:59.374Z,93.97
2023-05-23T04:28:28.823Z,94.30
2023-05-23T04:30:56.356Z,94.16
2023-05-23T04:33:23.074Z,94.00
2023-05-23T04:35:49.710Z,92.53
2023-05-23T04:38:17.142Z,92.04
2023-05-23T04:40:43.773Z,91.40
2023-05-23T04:43:14.217Z,92.79
2023-05-23T04:45:41.694Z,94.31
2023-05-23T04:48:08.676Z,94.84
2023-05-23T04:50:35.935Z,94.52
2023-05-23T04:53:02.455Z,94.55
2023-05-23T04:55:29.342Z,93.65
2023-05-23T04:57:56.276Z,92.81
2023-05-23T05:00:22.786Z,92.39
2023-05-23T05:02:49.435Z,91.95
2023-05-23T05:05:16.080Z,90.74
2023-05-23T05:07:42.592Z,90.08
2023-05-23T05:10:16.805Z,89.95
2023-05-23T05:12:46.947Z,90.10
2023-05-23T05:15:13.700Z,90.17
2023-05-23T05:17:40.756Z,89.20
2023-05-23T05:20:08.673Z,88.43
2023-05-23T05:22:36.463Z,87.89
2023-05-23T05:25:03.809Z,87.48
2023-05-23T05:27:30.326Z,86.42
2023-05-23T05:30:04.614Z,84.40
2023-05-23T05:32:33.699Z,84.69
2023-05-23T05:35:00.952Z,80.14
2023-05-23T05:37:27.868Z,80.11
2023-05-23T05:39:55.010Z,79.63
2023-05-23T05:42:22.055Z,79.55
2023-05-23T05:44:49.064Z,78.63
2023-05-23T05:47:15.787Z,79.45
2023-05-23T05:49:42.313Z,78.77
2023-05-23T05:52:08.894Z,78.07
2023-05-23T05:54:36.133Z,78.82
2023-05-23T05:57:02.728Z,78.57
2023-05-23T05:59:31.125Z,78.51
2023-05-23T06:01:58.981Z,78.34
2023-05-23T06:04:25.565Z,76.92
2023-05-23T06:06:52.194Z,77.84
2023-05-23T06:09:18.750Z,76.94
2023-05-23T06:11:45.329Z,76.87
2023-05-23T06:14:11.950Z,75.74
2023-05-23T06:16:38.963Z,75.67
2023-05-23T06:19:06.163Z,76.09
2023-05-23T06:21:33.158Z,75.75
2023-05-23T06:23:59.670Z,75.70
2023-05-23T06:26:26.869Z,75.66
2023-05-23T06:28:53.471Z,75.23
2023-05-23T06:31:20.054Z,74.42
2023-05-23T06:33:46.615Z,73.92
2023-05-23T06:36:13.188Z,72.26
2023-05-23T06:38:39.730Z,72.12
2023-05-23T06:41:07.293Z,72.00
2023-05-23T06:43:33.976Z,71.36
2023-05-23T06:46:00.598Z,70.22
2023-05-23T06:48:27.111Z,68.80
2023-05-23T06:50:53.678Z,69.19
2023-05-23T06:53:20.250Z,69.93
2023-05-23T06:55:47.112Z,69.44
2023-05-23T06:58:14.672Z,69.00
2023-05-23T07:00:41.379Z,68.13
2023-05-23T07:03:08.210Z,68.15
2023-05-23T07:05:37.399Z,68.84
2023-05-23T07:08:07.303Z,68.33
2023-05-23T07:10:35.245Z,68.59
2023-05-23T07:13:01.828Z,67.91
2023-05-23T07:15:28.395Z,68.88
2023-05-23T07:17:54.983Z,68.91
2023-05-23T07:20:21.937Z,68.35
2023-05-23T07:22:48.483Z,69.27
2023-05-23T07:25:15.057Z,69.96
2023-05-23T07:27:41.642Z,69.98
2023-05-23T07:30:09.809Z,70.88
2023-05-23T07:32:36.717Z,69.55
2023-05-23T07:35:03.370Z,68.72
2023-05-23T07:37:29.886Z,69.02
2023-05-23T07:39:56.390Z,67.99
2023-05-23T07:42:22.947Z,69.55
2023-05-23T07:44:49.469Z,67.37
2023-05-23T07:47:16.028Z,66.20
2023-05-23T07:49:42.642Z,66.13
2023-05-23T07:52:09.193Z,66.43
2023-05-23T07:54:35.769Z,66.76
2023-05-23T07:57:02.385Z,68.07
2023-05-23T07:59:30.116Z,68.65
2023-05-23T08:01:56.729Z,68.63
2023-05-23T08:04:23.350Z,68.82
2023-05-23T08:07:04.494Z,67.51
2023-05-23T08:09:31.889Z,67.98
2023-05-23T08:11:58.436Z,67.96
2023-05-23T08:14:29.430Z,66.82
2023-05-23T08:17:05.221Z,66.28
2023-05-23T08:19:32.267Z,67.34
2023-05-23T08:21:58.881Z,65.19
2023-05-23T08:24:25.615Z,64.26
2023-05-23T08:26:52.141Z,65.08
2023-05-23T08:29:18.728Z,66.85
2023-05-23T08:31:45.368Z,67.09
2023-05-23T08:34:12.451Z,67.73
2023-05-23T08:36:39.940Z,65.56
2023-05-23T08:39:06.891Z,65.59
2023-05-23T08:41:33.525Z,64.62
2023-05-23T08:44:00.047Z,65.29
2023-05-23T08:46:27.327Z,64.90
2023-05-23T08:48:54.894Z,61.66
2023-05-23T08:51:23.928Z,62.59
2023-05-23T08:53:53.012Z,61.85
2023-05-23T08:56:20.018Z,60.73
2023-05-23T08:58:47.653Z,61.25
2023-05-23T09:01:14.666Z,60.77
2023-05-23T09:03:44.370Z,61.37
2023-05-23T09:06:11.074Z,60.80
2023-05-23T09:08:37.785Z,60.68
2023-05-23T09:11:05.968Z,60.09
2023-05-23T09:13:33.025Z,59.56
2023-05-23T09:16:02.406Z,60.91
2023-05-23T09:18:42.368Z,59.73
2023-05-23T09:21:09.735Z,59.39
2023-05-23T09:23:36.992Z,59.14
2023-05-23T09:26:07.825Z,58.84
2023-05-23T09:28:34.828Z,58.64
2023-05-23T09:31:05.302Z,59.38
2023-05-23T09:33:47.861Z,58.83
2023-05-23T09:36:14.244Z,58.18
2023-05-23T09:38:41.702Z,57.75
2023-05-23T09:41:08.306Z,57.31
2023-05-23T09:43:34.922Z,58.33
2023-05-23T09:46:09.337Z,57.80
2023-05-23T09:48:36.026Z,60.06
2023-05-23T09:51:09.108Z,59.90
2023-05-23T09:53:35.917Z,60.76
2023-05-23T09:56:03.063Z,59.92
2023-05-23T09:58:32.629Z,59.16
2023-05-23T10:01:03.797Z,59.43
2023-05-23T10:03:35.643Z,59.64
2023-05-23T10:06:10.695Z,59.64
2023-05-23T10:08:39.474Z,59.58
2023-05-23T10:11:16.474Z,59.46
2023-05-23T10:13:47.168Z,58.92
2023-05-23T10:16:55.213Z,58.91
2023-05-23T10:19:28.090Z,59.95
2023-05-23T10:21:59.484Z,59.76
2023-05-23T10:24:27.385Z,59.31
2023-05-23T10:26:55.216Z,59.67
2023-05-23T10:29:25.172Z,58.52
2023-05-23T10:31:52.133Z,57.65
2023-05-23T10:34:48.069Z,56.47
2023-05-23T10:37:21.198Z,57.27
2023-05-23T10:40:08.221Z,58.44
2023-05-23T10:42:52.179Z,59.52
2023-05-23T10:45:22.478Z,60.09
2023-05-23T10:47:51.146Z,58.75
2023-05-23T10:50:32.156Z,58.72
2023-05-23T10:53:00.221Z,58.61
2023-05-23T10:55:28.057Z,58.04
2023-05-23T10:58:30.526Z,59.25
2023-05-23T11:00:59.682Z,60.41
2023-05-23T11:03:49.840Z,60.49
2023-05-23T11:06:44.400Z,59.42
2023-05-23T11:09:19.319Z,59.68
2023-05-23T11:11:52.369Z,59.74
2023-05-23T11:14:19.451Z,59.51
2023-05-23T11:16:47.265Z,57.96
2023-05-23T11:19:23.173Z,56.56
2023-05-23T11:22:00.208Z,55.29
2023-05-23T11:24:52.526Z,56.15
2023-05-23T11:27:32.027Z,57.79
2023-05-23T11:29:59.105Z,55.74
2023-05-23T11:32:28.136Z,54.35
2023-05-23T11:34:54.711Z,54.07
2023-05-23T11:37:21.340Z,55.04
2023-05-23T11:39:47.850Z,55.48
2023-05-23T11:42:14.363Z,56.29
2023-05-23T11:44:40.917Z,56.69
2023-05-23T11:47:08.369Z,56.94
2023-05-23T11:49:36.397Z,58.17
2023-05-23T11:52:03.150Z,57.68
2023-05-23T11:54:29.723Z,56.85
2023-05-23T11:56:56.296Z,57.25
2023-05-23T11:59:26.223Z,55.80
2023-05-23T12:01:53.075Z,53.91
2023-05-23T12:04:19.684Z,52.27
2023-05-23T12:06:47.312Z,52.85
2023-05-23T12:09:14.086Z,54.53
2023-05-23T12:11:41.195Z,55.16
2023-05-23T12:14:08.506Z,53.47
2023-05-23T12:16:36.114Z,51.65
2023-05-23T12:19:04.834Z,52.97
2023-05-23T12:21:41.849Z,52.02
2023-05-23T12:24:21.400Z,50.79
2023-05-23T12:26:49.132Z,49.41
2023-05-23T12:29:16.491Z,49.19
2023-05-23T12:31:43.046Z,48.92
2023-05-23T12:34:10.857Z,50.67
2023-05-23T12:36:48.040Z,51.14
2023-05-23T12:39:15.921Z,50.75
2023-05-23T12:41:43.500Z,52.29
2023-05-23T12:44:10.074Z,49.76
2023-05-23T12:46:37.103Z,48.93
2023-05-23T12:49:03.828Z,48.56
2023-05-23T12:51:30.650Z,49.05
2023-05-23T12:53:57.265Z,47.02
2023-05-23T12:56:23.863Z,46.01
2023-05-23T12:58:50.488Z,47.39
2023-05-23T13:01:17.152Z,46.99
2023-05-23T13:03:43.725Z,48.79
2023-05-23T13:06:10.307Z,47.55
2023-05-23T13:08:37.162Z,47.81
2023-05-23T13:11:03.918Z,46.29
2023-05-23T13:13:30.568Z,46.49
2023-05-23T13:15:57.228Z,47.63
2023-05-23T13:18:23.895Z,45.50
2023-05-23T13:20:50.497Z,46.37
2023-05-23T13:23:17.063Z,44.44
2023-05-23T13:25:43.766Z,45.30
2023-05-23T13:28:10.566Z,45.51
2023-05-23T13:30:37.153Z,46.16
2023-05-23T13:33:03.809Z,44.85
2023-05-23T13:35:30.455Z,46.00
2023-05-23T13:37:57.350Z,46.15
2023-05-23T13:40:23.959Z,47.11
2023-05-23T13:42:51.285Z,47.22
2023-05-23T13:45:18.918Z,46.25
2023-05-23T13:47:46.438Z,45.57
2023-05-23T13:50:12.958Z,44.48
2023-05-23T13:52:42.925Z,43.38
2023-05-23T13:55:10.880Z,46.06
2023-05-23T13:57:37.383Z,45.14
2023-05-23T14:00:04.330Z,45.25
2023-05-23T14:02:32.106Z,46.38
2023-05-23T14:04:58.889Z,45.90
2023-05-23T14:07:25.659Z,44.25
2023-05-23T14:09:52.189Z,45.60
2023-05-23T14:12:18.697Z,48.30
2023-05-23T14:14:45.360Z,48.75
2023-05-23T14:17:16.072Z,48.58
2023-05-23T14:19:42.969Z,48.91
2023-05-23T14:22:10.019Z,45.93
2023-05-23T14:24:36.640Z,47.62
2023-05-23T14:27:03.724Z,49.01
2023-05-23T14:29:30.257Z,46.92
2023-05-23T14:31:56.846Z,47.40
2023-05-23T14:34:23.390Z,47.15
2023-05-23T14:36:50.285Z,47.34
2023-05-23T14:39:16.877Z,49.18
2023-05-23T14:41:43.512Z,50.34
2023-05-23T14:44:10.121Z,50.87
2023-05-23T14:46:37.555Z,50.98
2023-05-23T14:49:04.198Z,50.77
2023-05-23T14:51:44.747Z,50.13
2023-05-23T14:54:13.027Z,46.33
2023-05-23T14:56:41.157Z,45.86
2023-05-23T14:59:08.139Z,50.45
2023-05-23T15:01:35.354Z,50.70
2023-05-23T15:04:05.684Z,50.69
2023-05-23T15:06:32.323Z,49.88
2023-05-23T15:08:58.858Z,47.69
2023-05-23T15:11:27.413Z,46.92
2023-05-23T15:13:54.294Z,45.87
2023-05-23T15:16:20.937Z,44.69
2023-05-23T15:18:47.704Z,42.95
2023-05-23T15:21:14.438Z,48.05
2023-05-23T15:23:41.509Z,48.11
2023-05-23T15:26:08.379Z,47.69
2023-05-23T15:28:34.897Z,44.65
2023-05-23T15:31:01.404Z,46.91
2023-05-23T15:33:28.042Z,46.61
2023-05-23T15:35:54.933Z,43.95
2023-05-23T15:38:21.470Z,43.31
2023-05-23T15:40:49.084Z,44.06
2023-05-23T15:43:15.652Z,45.81
2023-05-23T15:45:42.481Z,46.14
2023-05-23T15:48:09.283Z,46.71
2023-05-23T15:50:35.902Z,47.59
2023-05-23T15:53:02.425Z,48.79
2023-05-23T15:55:29.067Z,49.78
2023-05-23T15:57:55.633Z,48.95
2023-05-23T16:00:22.230Z,48.94
2023-05-23T16:02:48.820Z,48.32
2023-05-23T16:05:15.344Z,49.82
2023-05-23T16:07:41.858Z,50.09
2023-05-23T16:10:08.698Z,49.98
2023-05-23T16:12:35.418Z,50.65
2023-05-23T16:15:01.948Z,47.66
2023-05-23T16:17:28.499Z,47.00
2023-05-23T16:19:55.094Z,49.67
2023-05-23T16:22:21.635Z,47.89
2023-05-23T16:24:48.187Z,51.15
2023-05-23T16:27:14.700Z,50.63
2023-05-23T16:29:41.242Z,51.13
2023-05-23T16:32:08.118Z,50.73
2023-05-23T16:34:35.277Z,50.23
2023-05-23T16:37:01.806Z,48.82
2023-05-23T16:39:28.694Z,49.87
2023-05-23T16:41:55.284Z,50.29
2023-05-23T16:44:21.894Z,52.43
2023-05-23T16:46:48.632Z,52.57
2023-05-23T16:49:15.246Z,51.89
2023-05-23T16:51:41.775Z,49.93
2023-05-23T16:54:08.922Z,49.98
2023-05-23T16:56:36.028Z,50.81
2023-05-23T16:59:02.531Z,50.67
2023-05-23T17:01:29.504Z,50.58
2023-05-23T17:03:56.778Z,52.84
2023-05-23T17:06:23.459Z,53.51
2023-05-23T17:08:50.042Z,53.83
2023-05-23T17:11:16.603Z,54.65
2023-05-23T17:13:44.309Z,55.27
2023-05-23T17:16:11.872Z,55.25
2023-05-23T17:18:38.514Z,55.17
2023-05-23T17:21:05.064Z,54.76
2023-05-23T17:23:31.622Z,55.83
2023-05-23T17:25:58.117Z,54.96
2023-05-23T17:28:24.649Z,54.70
2023-05-23T17:30:54.128Z,55.70
2023-05-23T17:33:20.634Z,55.25
2023-05-23T17:35:47.167Z,55.13
2023-05-23T17:38:14.321Z,56.67
2023-05-23T17:40:42.048Z,57.28
2023-05-23T17:43:09.103Z,56.97
2023-05-23T17:45:36.187Z,57.92
2023-05-23T17:48:03.561Z,57.69
2023-05-23T17:50:30.522Z,58.30
2023-05-23T17:52:57.337Z,58.03
2023-05-23T17:55:23.869Z,57.50
2023-05-23T17:57:50.531Z,58.33
2023-05-23T18:00:17.727Z,58.16
2023-05-23T18:02:44.342Z,58.83
2023-05-23T18:05:10.908Z,59.23
2023-05-23T18:07:37.938Z,58.71
2023-05-23T18:10:05.396Z,59.12
2023-05-23T18:12:32.332Z,59.90
2023-05-23T18:14:58.935Z,60.20
2023-05-23T18:17:25.669Z,60.82
2023-05-23T18:19:52.203Z,61.43
2023-05-23T18:22:19.888Z,61.81
2023-05-23T18:24:46.822Z,62.45
2023-05-23T18:27:13.357Z,62.67
2023-05-23T18:29:39.929Z,62.89
2023-05-23T18:32:06.548Z,61.91
2023-05-23T18:34:33.107Z,61.79
2023-05-23T18:36:59.674Z,62.45
2023-05-23T18:39:26.358Z,62.72
2023-05-23T18:41:52.854Z,62.57
2023-05-23T18:44:20.929Z,62.24
2023-05-23T18:46:47.844Z,62.71
2023-05-23T18:49:14.440Z,63.68
2023-05-23T18:51:42.228Z,64.22
2023-05-23T18:54:08.730Z,63.65
2023-05-23T18:56:35.671Z,64.19
2023-05-23T18:59:02.363Z,64.99
2023-05-23T19:01:28.998Z,64.97
2023-05-23T19:03:57.119Z,65.69
2023-05-23T19:06:23.956Z,66.12
2023-05-23T19:08:50.799Z,66.13
2023-05-23T19:11:17.336Z,66.56
2023-05-23T19:13:44.031Z,67.00
2023-05-23T19:16:10.644Z,67.23
2023-05-23T19:18:37.426Z,67.88
2023-05-23T19:21:04.080Z,68.25
2023-05-23T19:23:30.602Z,68.10
2023-05-23T19:25:57.107Z,68.78
2023-05-23T19:28:23.720Z,68.74
2023-05-23T19:30:50.323Z,69.47
2023-05-23T19:33:18.067Z,69.86
2023-05-23T19:35:44.911Z,69.70
2023-05-23T19:38:11.734Z,69.64
2023-05-23T19:40:38.377Z,70.12
2023-05-23T19:43:05.353Z,71.27
2023-05-23T19:45:31.846Z,70.43
2023-05-23T19:47:58.488Z,70.57
2023-05-23T19:50:25.252Z,71.46
2023-05-23T19:52:52.250Z,70.91
2023-05-23T19:55:18.835Z,71.66
2023-05-23T19:57:45.539Z,72.03
2023-05-23T20:00:14.703Z,71.46
2023-05-23T20:02:41.573Z,72.24
2023-05-23T20:05:08.527Z,71.16
2023-05-23T20:07:36.474Z,71.77
2023-05-23T20:10:03.487Z,72.14
2023-05-23T20:12:30.050Z,71.93
2023-05-23T20:14:57.479Z,72.31
2023-05-23T20:17:24.032Z,73.51
2023-05-23T20:19:50.682Z,72.61
2023-05-23T20:22:17.281Z,72.48
2023-05-23T20:24:43.830Z,72.52
2023-05-23T20:27:10.667Z,72.74
2023-05-23T20:29:37.523Z,72.53
2023-05-23T20:32:04.186Z,72.88
2023-05-23T20:34:31.792Z,73.30
2023-05-23T20:36:58.340Z,73.98
2023-05-23T20:39:24.906Z,74.63
2023-05-23T20:41:51.779Z,74.06
2023-05-23T20:44:18.396Z,74.37
2023-05-23T20:46:45.085Z,74.35
2023-05-23T20:49:11.734Z,74.56
2023-05-23T20:51:38.580Z,74.84
2023-05-23T20:54:05.642Z,74.60
2023-05-23T20:56:32.657Z,75.26
2023-05-23T20:59:01.974Z,75.27
2023-05-23T21:01:28.599Z,75.07
2023-05-23T21:03:55.571Z,75.63
2023-05-23T21:06:22.423Z,75.31
2023-05-23T21:08:48.999Z,74.75
2023-05-23T21:11:15.673Z,73.99
2023-05-23T21:13:42.270Z,74.35
2023-05-23T21:16:08.769Z,73.53
2023-05-23T21:18:35.317Z,73.48
2023-05-23T21:21:01.882Z,73.75
2023-05-23T21:23:28.419Z,74.18
2023-05-23T21:25:55.899Z,74.03
2023-05-23T21:28:22.478Z,73.47
2023-05-23T21:30:49.515Z,73.76
2023-05-23T21:33:16.201Z,73.60
2023-05-23T21:35:45.055Z,73.95
2023-05-23T21:38:11.582Z,73.84
2023-05-23T21:40:38.122Z,74.63
2023-05-23T21:43:04.623Z,74.20
2023-05-23T21:45:31.212Z,74.08
2023-05-23T21:47:57.824Z,74.69
2023-05-23T21:50:24.363Z,74.28
2023-05-23T21:52:50.924Z,74.25
2023-05-23T21:55:17.507Z,74.33
2023-05-23T21:57:44.046Z,74.67
2023-05-23T22:00:12.538Z,74.43
2023-05-23T22:02:39.793Z,74.46
2023-05-23T22:05:07.046Z,74.64
2023-05-23T22:07:33.600Z,75.26
2023-05-23T22:10:00.301Z,74.68
2023-05-23T22:12:26.894Z,74.70
2023-05-23T22:14:54.710Z,74.60
2023-05-23T22:17:22.737Z,74.80
2023-05-23T22:19:51.782Z,74.10
2023-05-23T22:22:18.955Z,75.06
2023-05-23T22:24:45.548Z,74.66
2023-05-23T22:27:12.293Z,74.66
2023-05-23T22:29:38.858Z,74.27
2023-05-23T22:32:05.550Z,74.60
2023-05-23T22:34:32.140Z,74.18
2023-05-23T22:37:00.264Z,74.40
2023-05-23T22:39:27.196Z,74.30
2023-05-23T22:41:53.903Z,74.39
2023-05-23T22:44:20.478Z,74.07
2023-05-23T22:46:47.120Z,74.72
2023-05-23T22:49:15.340Z,74.99
2023-05-23T22:51:42.064Z,74.18
2023-05-23T22:54:08.788Z,74.33
2023-05-23T22:56:35.493Z,75.12
2023-05-23T22:59:02.244Z,74.75
2023-05-23T23:01:29.939Z,74.96
2023-05-23T23:03:56.547Z,75.40
2023-05-23T23:06:23.042Z,75.76
2023-05-23T23:08:49.952Z,75.85
2023-05-23T23:11:16.581Z,75.60
2023-05-23T23:13:43.120Z,76.20
2023-05-23T23:16:09.789Z,76.18
2023-05-23T23:18:36.331Z,75.47
2023-05-23T23:21:02.890Z,75.42
2023-05-23T23:23:29.524Z,75.98
2023-05-23T23:25:56.124Z,75.82
2023-05-23T23:28:22.633Z,75.26
2023-05-23T23:30:49.210Z,75.24
2023-05-23T23:33:15.878Z,75.24
2023-05-23T23:35:45.350Z,75.90
2023-05-23T23:38:13.101Z,75.52
2023-05-23T23:40:39.707Z,75.79
2023-05-23T23:43:06.299Z,76.13
2023-05-23T23:45:32.886Z,75.41
2023-05-23T23:47:59.463Z,76.50
2023-05-23T23:50:26.800Z,75.78
2023-05-23T23:52:53.382Z,75.87
2023-05-23T23:55:19.968Z,76.03
2023-05-23T23:57:46.751Z,76.86
